Airfield :
LOGIN :

Register | Disclaimer

   EN    FR    IT 

 










Legend :    VFR   Marginal VFR   IFR   Intensive IFR   Very Intensive IFR
Visi :
Ceiling :
>= 8 km
>= 3000ft
5 to 8 km
1000 to 3000 ft
1500m to 5 km
500 to 1000 ft
800 to 1500m
200 to 500 ft
< 800m
< 200 ft
Symbols :   Thunderstorms  Fog  Heavy snow  Heavy precipitations  Wind > 20 kt
SIGMETs :     Misc.  Thunderstorms  Icing  Turbulence  Mountain Waves  Volcanic Ashes






- Airport Elevation : 242 ft
- IATA code : DUB


EIDW - Dublin

CURRENT METAR :
  • 071100Z VRB03KT 9999 FEW025 10/M02 Q1016 NOSIG

EXPIRED METARs :
  • 071030Z 36004KT 280V110 9999 FEW025 09/M01 Q1016 NOSIG
  • 071000Z 28004KT 160V020 9999 FEW025 09/01 Q1016 NOSIG
  • 070930Z 01004KT 200V190 9999 FEW025 08/01 Q1016 NOSIG
  • 070900Z 30005KT 250V020 9999 FEW025 07/01 Q1016 NOSIG
  • 070830Z 28007KT 260V320 9999 FEW025 07/02 Q1016 NOSIG
  • 070800Z 27007KT 9999 FEW025 06/01 Q1016 NOSIG

TAF AMD TAF EIDW
Valid from the 07 at 09:00 until the 08 at 06:00 UTC


070935Z 0709/0806 VRB03KT 9999 SCT040
TEMPO 0709/0711 32005KT
BECMG 0712/0714 13010KT
BECMG 0722/0724 12012KT
BECMG 0800/0802 12018G30KT
PROB40
TEMPO 0800/0803 -RA BKN012
BECMG 0803/0805 -RA BKN010
TEMPO 0803/0806 3000 RA BKN006



MET'MAP, your aeronautical weather chart ! - Copyright ORBIFLY December 2007 - Disclaimer

ORBIFLY MET'MAP TEAM :

Programming & Development : Alexandra Zaïnal
Concept & original design : Baudouin d'Aumeries
Assistance for programming : Marc-Olivier Méhu
Technical & hardware support : Manuel Goepfert

Contact : metmap@orbifly.com




SOURCES & CREDITS :

   NOAA